createdAt,value
2024-02-24T00:00:41.700Z,11.93
2024-02-24T00:03:10.214Z,11.92
2024-02-24T00:05:38.730Z,11.90
2024-02-24T00:08:08.651Z,11.87
2024-02-24T00:10:37.152Z,11.87
2024-02-24T00:13:06.083Z,11.83
2024-02-24T00:15:34.494Z,11.86
2024-02-24T00:18:05.764Z,11.86
2024-02-24T00:20:34.466Z,11.84
2024-02-24T00:23:03.281Z,11.82
2024-02-24T00:25:31.812Z,11.83
2024-02-24T00:28:00.282Z,11.76
2024-02-24T00:30:28.654Z,11.75
2024-02-24T00:32:57.150Z,11.77
2024-02-24T00:35:29.549Z,11.76
2024-02-24T00:37:58.773Z,11.74
2024-02-24T00:40:27.489Z,11.71
2024-02-24T00:42:55.914Z,11.70
2024-02-24T00:45:24.324Z,11.68
2024-02-24T00:47:52.887Z,11.62
2024-02-24T00:50:21.374Z,11.61
2024-02-24T00:52:51.230Z,11.60
2024-02-24T00:55:19.813Z,11.59
2024-02-24T00:57:48.251Z,11.56
2024-02-24T01:00:18.885Z,11.53
2024-02-24T01:02:47.491Z,11.55
2024-02-24T01:05:16.188Z,11.55
2024-02-24T01:07:46.309Z,11.48
2024-02-24T01:10:16.282Z,11.54
2024-02-24T01:12:44.864Z,11.52
2024-02-24T01:15:13.347Z,11.49
2024-02-24T01:17:41.943Z,11.45
2024-02-24T01:20:11.766Z,11.45
2024-02-24T01:22:40.271Z,11.47
2024-02-24T01:25:09.759Z,11.44
2024-02-24T01:27:39.578Z,11.44
2024-02-24T01:30:09.643Z,11.42
2024-02-24T01:32:38.325Z,11.41
2024-02-24T01:35:09.212Z,11.36
2024-02-24T01:37:38.675Z,11.38
2024-02-24T01:40:09.392Z,11.39
2024-02-24T01:42:39.217Z,11.36
2024-02-24T01:45:08.897Z,11.32
2024-02-24T01:47:37.510Z,11.27
2024-02-24T01:50:06.921Z,11.26
2024-02-24T01:52:35.927Z,11.29
2024-02-24T01:55:05.835Z,11.26
2024-02-24T01:57:38.155Z,11.31
2024-02-24T02:00:10.453Z,11.26
2024-02-24T02:02:45.270Z,11.27
2024-02-24T02:05:14.901Z,11.26
2024-02-24T02:07:43.496Z,11.25
2024-02-24T02:10:12.055Z,11.25
2024-02-24T02:12:40.808Z,11.22
2024-02-24T02:15:11.729Z,11.28
2024-02-24T02:17:41.170Z,11.28
2024-02-24T02:20:10.494Z,11.28
2024-02-24T02:22:40.440Z,11.27
2024-02-24T02:25:09.512Z,11.25
2024-02-24T02:27:38.154Z,11.23
2024-02-24T02:30:08.226Z,11.19
2024-02-24T02:32:36.899Z,11.14
2024-02-24T02:35:06.342Z,11.18
2024-02-24T02:37:35.062Z,11.23
2024-02-24T02:40:05.186Z,11.32
2024-02-24T02:42:33.608Z,11.34
2024-02-24T02:45:02.078Z,11.33
2024-02-24T02:47:30.740Z,11.38
2024-02-24T02:49:59.146Z,11.38
2024-02-24T02:52:27.649Z,11.38
2024-02-24T02:54:56.067Z,11.40
2024-02-24T02:57:26.302Z,11.38
2024-02-24T02:59:54.989Z,11.36
2024-02-24T03:02:23.502Z,11.30
2024-02-24T03:04:51.942Z,11.23
2024-02-24T03:07:20.328Z,11.26
2024-02-24T03:09:49.227Z,11.23
2024-02-24T03:12:17.806Z,11.13
2024-02-24T03:14:47.837Z,11.11
2024-02-24T03:17:16.334Z,11.09
2024-02-24T03:19:44.801Z,11.07
2024-02-24T03:22:13.364Z,11.00
2024-02-24T03:24:43.615Z,10.95
2024-02-24T03:27:12.830Z,10.95
2024-02-24T03:29:41.334Z,10.89
2024-02-24T03:32:11.767Z,10.93
2024-02-24T03:34:40.681Z,10.90
2024-02-24T03:37:09.091Z,10.87
2024-02-24T03:39:39.484Z,10.87
2024-02-24T03:42:08.043Z,10.86
2024-02-24T03:44:36.521Z,10.83
2024-02-24T03:47:05.110Z,10.73
2024-02-24T03:49:35.076Z,10.73
2024-02-24T03:52:03.550Z,10.69
2024-02-24T03:54:31.965Z,10.66
2024-02-24T03:57:00.503Z,10.66
2024-02-24T03:59:28.882Z,10.66
2024-02-24T04:01:57.338Z,10.66
2024-02-24T04:04:25.836Z,10.70
2024-02-24T04:06:55.764Z,10.69
2024-02-24T04:09:24.286Z,10.66
2024-02-24T04:11:54.155Z,10.69
2024-02-24T04:14:22.775Z,10.73
2024-02-24T04:16:51.185Z,10.77
2024-02-24T04:19:19.702Z,10.78
2024-02-24T04:21:48.176Z,10.79
2024-02-24T04:24:18.019Z,10.74
2024-02-24T04:26:46.489Z,10.73
2024-02-24T04:29:15.004Z,10.75
2024-02-24T04:31:43.392Z,10.77
2024-02-24T04:34:11.887Z,10.73
2024-02-24T04:36:43.067Z,10.74
2024-02-24T04:39:11.653Z,10.77
2024-02-24T04:41:41.554Z,10.73
2024-02-24T04:44:10.082Z,10.71
2024-02-24T04:46:39.801Z,10.77
2024-02-24T04:49:09.874Z,10.83
2024-02-24T04:51:38.502Z,10.83
2024-02-24T04:54:07.084Z,10.78
2024-02-24T04:56:35.489Z,10.80
2024-02-24T04:59:05.399Z,10.85
2024-02-24T05:01:34.023Z,10.87
2024-02-24T05:04:02.419Z,10.85
2024-02-24T05:06:30.957Z,10.84
2024-02-24T05:08:59.479Z,10.85
2024-02-24T05:11:27.963Z,10.83
2024-02-24T05:13:56.426Z,10.84
2024-02-24T05:16:26.191Z,10.80
2024-02-24T05:18:54.668Z,10.83
2024-02-24T05:21:23.397Z,10.80
2024-02-24T05:23:51.958Z,10.75
2024-02-24T05:26:27.370Z,10.71
2024-02-24T05:28:55.996Z,10.74
2024-02-24T05:31:25.988Z,10.72
2024-02-24T05:33:57.027Z,10.72
2024-02-24T05:36:25.511Z,10.66
2024-02-24T05:38:54.078Z,10.56
2024-02-24T05:41:22.567Z,10.55
2024-02-24T05:43:50.991Z,10.53
2024-02-24T05:46:19.561Z,10.50
2024-02-24T05:48:49.885Z,10.50
2024-02-24T05:51:18.892Z,10.50
2024-02-24T05:53:47.383Z,10.46
2024-02-24T05:56:15.937Z,10.49
2024-02-24T05:58:44.418Z,10.48
2024-02-24T06:01:12.939Z,10.49
2024-02-24T06:03:41.509Z,10.48
2024-02-24T06:06:11.548Z,10.36
2024-02-24T06:08:40.075Z,10.39
2024-02-24T06:11:08.829Z,10.45
2024-02-24T06:13:37.420Z,10.51
2024-02-24T06:16:06.388Z,10.46
2024-02-24T06:18:34.955Z,10.43
2024-02-24T06:21:04.583Z,10.40
2024-02-24T06:23:34.494Z,10.39
2024-02-24T06:26:02.983Z,10.42
2024-02-24T06:28:31.387Z,10.45
2024-02-24T06:31:00.064Z,10.46
2024-02-24T06:33:28.556Z,10.50
2024-02-24T06:35:57.079Z,10.57
2024-02-24T06:38:25.545Z,10.65
2024-02-24T06:40:55.385Z,10.65
2024-02-24T06:43:24.163Z,10.69
2024-02-24T06:45:52.666Z,10.72
2024-02-24T06:48:21.304Z,10.67
2024-02-24T06:50:49.847Z,10.69
2024-02-24T06:53:18.558Z,10.79
2024-02-24T06:55:47.038Z,10.81
2024-02-24T06:58:16.871Z,10.83
2024-02-24T07:00:45.411Z,10.85
2024-02-24T07:03:13.868Z,10.89
2024-02-24T07:05:43.843Z,10.93
2024-02-24T07:08:12.255Z,10.93
2024-02-24T07:10:40.716Z,10.93
2024-02-24T07:13:09.131Z,10.88
2024-02-24T07:15:39.008Z,10.95
2024-02-24T07:18:07.702Z,11.02
2024-02-24T07:20:36.325Z,11.08
2024-02-24T07:23:05.218Z,11.03
2024-02-24T07:25:33.645Z,11.07
2024-02-24T07:28:02.127Z,11.13
2024-02-24T07:30:30.526Z,11.16
2024-02-24T07:33:00.578Z,11.18
2024-02-24T07:35:29.255Z,11.27
2024-02-24T07:37:57.753Z,11.30
2024-02-24T07:40:26.186Z,11.32
2024-02-24T07:42:55.886Z,11.46
2024-02-24T07:45:26.758Z,11.43
2024-02-24T07:47:55.757Z,11.59
2024-02-24T07:50:26.170Z,11.62
2024-02-24T07:52:54.692Z,11.62
2024-02-24T07:55:23.415Z,11.61
2024-02-24T07:57:51.870Z,11.72
2024-02-24T08:00:21.079Z,11.77
2024-02-24T08:02:49.580Z,11.85
2024-02-24T08:05:19.558Z,11.87
2024-02-24T08:07:49.398Z,11.90
2024-02-24T08:10:18.131Z,11.91
2024-02-24T08:12:46.656Z,11.88
2024-02-24T08:15:15.141Z,11.86
2024-02-24T08:17:43.599Z,11.89
2024-02-24T08:20:14.082Z,11.98
2024-02-24T08:22:43.690Z,12.03
2024-02-24T08:25:13.585Z,12.19
2024-02-24T08:27:42.011Z,12.17
2024-02-24T08:30:11.819Z,12.18
2024-02-24T08:32:40.297Z,12.27
2024-02-24T08:35:09.680Z,12.20
2024-02-24T08:37:38.329Z,12.21
2024-02-24T08:40:08.016Z,12.36
2024-02-24T08:42:37.898Z,12.44
2024-02-24T08:45:07.297Z,12.56
2024-02-24T08:47:36.203Z,12.63
2024-02-24T08:50:04.972Z,12.70
2024-02-24T08:52:38.874Z,12.77
2024-02-24T08:55:15.090Z,12.84
2024-02-24T08:57:44.895Z,13.00
2024-02-24T09:00:14.338Z,13.01
2024-02-24T09:02:42.849Z,13.12
2024-02-24T09:05:11.510Z,13.18
2024-02-24T09:07:40.054Z,13.16
2024-02-24T09:10:10.030Z,13.25
2024-02-24T09:12:38.589Z,13.32
2024-02-24T09:15:09.479Z,13.40
2024-02-24T09:17:38.037Z,13.45
2024-02-24T09:20:10.067Z,13.53
2024-02-24T09:22:38.804Z,13.65
2024-02-24T09:25:07.744Z,13.73
2024-02-24T09:27:36.178Z,13.76
2024-02-24T09:30:04.820Z,13.90
2024-02-24T09:32:34.796Z,14.11
2024-02-24T09:35:03.309Z,14.41
2024-02-24T09:37:31.665Z,14.37
2024-02-24T09:40:02.072Z,14.44
2024-02-24T09:42:32.011Z,14.52
2024-02-24T09:45:03.662Z,14.62
2024-02-24T09:47:32.755Z,14.65
2024-02-24T09:50:02.901Z,14.68
2024-02-24T09:52:31.479Z,14.77
2024-02-24T09:54:59.829Z,14.91
2024-02-24T09:57:32.259Z,15.06
2024-02-24T10:00:02.062Z,14.96
2024-02-24T10:02:40.640Z,14.98
2024-02-24T10:05:10.849Z,15.12
2024-02-24T10:07:40.963Z,15.26
2024-02-24T10:10:10.276Z,15.37
2024-02-24T10:12:38.806Z,15.63
2024-02-24T10:15:08.621Z,15.85
2024-02-24T10:17:40.284Z,15.96
2024-02-24T10:20:11.868Z,15.71
2024-02-24T10:22:40.557Z,15.59
2024-02-24T10:25:09.551Z,15.44
2024-02-24T10:27:38.037Z,15.44
2024-02-24T10:30:08.461Z,15.55
2024-02-24T10:32:37.770Z,15.58
2024-02-24T10:35:06.782Z,15.70
2024-02-24T10:37:56.240Z,15.73
2024-02-24T10:40:25.489Z,15.85
2024-02-24T10:42:56.083Z,15.91
2024-02-24T10:45:25.895Z,15.78
2024-02-24T10:47:54.416Z,15.86
2024-02-24T10:50:22.921Z,15.87
2024-02-24T10:52:55.108Z,15.86
2024-02-24T10:55:25.708Z,15.80
2024-02-24T10:57:54.806Z,15.80
2024-02-24T11:00:28.258Z,15.73
2024-02-24T11:02:57.132Z,15.73
2024-02-24T11:05:26.044Z,15.57
2024-02-24T11:07:55.957Z,15.49
2024-02-24T11:10:25.101Z,15.51
2024-02-24T11:12:54.192Z,15.54
2024-02-24T11:15:25.750Z,15.43
2024-02-24T11:17:57.050Z,15.47
2024-02-24T11:20:56.670Z,15.63
2024-02-24T11:23:27.983Z,16.26
2024-02-24T11:26:37.875Z,17.29
2024-02-24T11:29:08.938Z,17.66
2024-02-24T11:31:38.735Z,18.05
2024-02-24T11:34:09.590Z,18.25
2024-02-24T11:36:39.849Z,18.43
2024-02-24T11:39:12.821Z,18.41
2024-02-24T11:41:42.684Z,17.73
2024-02-24T11:44:13.880Z,17.14
2024-02-24T11:46:46.712Z,16.80
2024-02-24T11:49:15.233Z,16.64
2024-02-24T11:51:44.839Z,16.60
2024-02-24T11:54:15.518Z,16.86
2024-02-24T11:56:44.054Z,17.23
2024-02-24T11:59:12.733Z,17.87
2024-02-24T12:01:42.845Z,18.07
2024-02-24T12:04:14.565Z,17.82
2024-02-24T12:06:44.878Z,17.46
2024-02-24T12:09:14.850Z,17.17
2024-02-24T12:11:43.632Z,16.79
2024-02-24T12:14:12.872Z,16.73
2024-02-24T12:16:43.150Z,16.85
2024-02-24T12:19:14.461Z,16.81
2024-02-24T12:21:43.117Z,16.69
2024-02-24T12:24:11.565Z,16.72
2024-02-24T12:26:41.506Z,17.11
2024-02-24T12:29:10.037Z,17.89
2024-02-24T12:31:38.552Z,18.21
2024-02-24T12:34:07.032Z,18.10
2024-02-24T12:36:35.621Z,17.80
2024-02-24T12:39:06.619Z,17.99
2024-02-24T12:41:35.194Z,18.23
2024-02-24T12:44:07.354Z,19.09
2024-02-24T12:46:36.334Z,19.76
2024-02-24T12:49:05.049Z,20.42
2024-02-24T12:51:33.536Z,20.04
2024-02-24T12:54:05.691Z,19.33
2024-02-24T12:56:34.492Z,18.59
2024-02-24T12:59:04.434Z,18.17
2024-02-24T13:01:32.938Z,17.81
2024-02-24T13:04:01.502Z,17.51
2024-02-24T13:06:30.080Z,17.26
2024-02-24T13:08:58.790Z,17.09
2024-02-24T13:11:27.600Z,16.88
2024-02-24T13:13:56.251Z,16.85
2024-02-24T13:16:26.191Z,16.72
2024-02-24T13:18:54.768Z,16.37
2024-02-24T13:21:23.260Z,16.36
2024-02-24T13:23:51.856Z,16.39
2024-02-24T13:26:20.340Z,16.31
2024-02-24T13:28:49.268Z,16.10
2024-02-24T13:31:22.509Z,16.01
2024-02-24T13:33:55.907Z,15.89
2024-02-24T13:36:25.556Z,15.17
2024-02-24T13:38:54.652Z,14.47
2024-02-24T13:41:23.247Z,14.17
2024-02-24T13:43:51.798Z,13.80
2024-02-24T13:46:20.231Z,13.60
2024-02-24T13:48:49.200Z,13.23
2024-02-24T13:51:19.148Z,13.07
2024-02-24T13:53:47.572Z,12.92
2024-02-24T13:56:16.069Z,12.82
2024-02-24T13:58:44.571Z,12.89
2024-02-24T14:01:13.103Z,12.87
2024-02-24T14:03:41.641Z,12.84
2024-02-24T14:06:10.161Z,12.85
2024-02-24T14:08:40.587Z,12.78
2024-02-24T14:11:09.225Z,12.77
2024-02-24T14:13:37.709Z,12.70
2024-02-24T14:16:06.814Z,12.45
2024-02-24T14:18:36.910Z,12.18
2024-02-24T14:21:06.160Z,12.11
2024-02-24T14:23:34.631Z,11.94
2024-02-24T14:26:05.489Z,11.97
2024-02-24T14:28:33.935Z,11.99
2024-02-24T14:31:02.550Z,12.05
2024-02-24T14:33:31.103Z,12.01
2024-02-24T14:35:59.711Z,12.12
2024-02-24T14:38:28.232Z,12.16
2024-02-24T14:41:01.144Z,12.25
2024-02-24T14:43:31.733Z,12.34
2024-02-24T14:46:00.208Z,12.51
2024-02-24T14:48:28.763Z,12.86
2024-02-24T14:50:57.480Z,13.34
2024-02-24T14:53:26.595Z,13.69
2024-02-24T14:55:55.053Z,13.95
2024-02-24T14:58:23.476Z,14.11
2024-02-24T15:00:53.357Z,14.27
2024-02-24T15:03:21.882Z,14.14
2024-02-24T15:05:50.420Z,13.90
2024-02-24T15:08:18.961Z,13.76
2024-02-24T15:10:47.593Z,13.98
2024-02-24T15:13:22.869Z,14.39
2024-02-24T15:15:55.712Z,14.74
2024-02-24T15:18:24.652Z,14.68
2024-02-24T15:20:53.328Z,14.24
2024-02-24T15:23:21.908Z,13.89
2024-02-24T15:25:50.433Z,13.68
2024-02-24T15:28:18.846Z,13.40
2024-02-24T15:30:47.341Z,13.39
2024-02-24T15:33:17.490Z,13.19
2024-02-24T15:35:46.245Z,13.02
2024-02-24T15:38:14.774Z,12.85
2024-02-24T15:40:43.233Z,12.65
2024-02-24T15:43:11.590Z,12.47
2024-02-24T15:45:40.102Z,12.41
2024-02-24T15:48:09.364Z,12.40
2024-02-24T15:50:39.320Z,12.46
2024-02-24T15:53:08.167Z,12.53
2024-02-24T15:55:36.551Z,12.51
2024-02-24T15:58:05.176Z,12.51
2024-02-24T16:00:33.606Z,12.44
2024-02-24T16:03:04.891Z,12.46
2024-02-24T16:05:34.034Z,12.40
2024-02-24T16:08:05.042Z,12.41
2024-02-24T16:10:33.551Z,12.42
2024-02-24T16:13:03.928Z,12.31
2024-02-24T16:15:32.390Z,12.25
2024-02-24T16:18:00.978Z,12.27
2024-02-24T16:20:29.467Z,12.23
2024-02-24T16:22:57.826Z,12.29
2024-02-24T16:25:27.776Z,12.32
2024-02-24T16:27:56.232Z,12.29
2024-02-24T16:30:25.683Z,12.19
2024-02-24T16:32:54.536Z,12.28
2024-02-24T16:35:23.066Z,12.29
2024-02-24T16:37:51.514Z,12.32
2024-02-24T16:40:20.002Z,12.36
2024-02-24T16:42:49.897Z,12.34
2024-02-24T16:45:18.492Z,12.32
2024-02-24T16:47:47.530Z,12.20
2024-02-24T16:50:19.210Z,12.18
2024-02-24T16:52:47.745Z,12.14
2024-02-24T16:55:16.328Z,12.10
2024-02-24T16:57:44.828Z,12.05
2024-02-24T17:00:15.981Z,11.94
2024-02-24T17:02:44.948Z,11.92
2024-02-24T17:05:13.978Z,11.86
2024-02-24T17:07:42.819Z,11.83
2024-02-24T17:10:12.827Z,11.76
2024-02-24T17:12:41.364Z,11.75
2024-02-24T17:15:11.841Z,11.74
2024-02-24T17:17:42.033Z,11.79
2024-02-24T17:20:11.276Z,11.84
2024-02-24T17:22:40.828Z,11.78
2024-02-24T17:25:10.156Z,11.69
2024-02-24T17:27:39.876Z,11.68
2024-02-24T17:30:08.403Z,11.70
2024-02-24T17:32:36.890Z,11.56
2024-02-24T17:35:08.291Z,11.49
2024-02-24T17:37:36.884Z,11.46
2024-02-24T17:40:07.669Z,11.49
2024-02-24T17:42:36.201Z,11.48
2024-02-24T17:45:04.741Z,11.47
2024-02-24T17:47:33.393Z,11.42
2024-02-24T17:50:01.836Z,11.47
2024-02-24T17:52:32.529Z,11.53
2024-02-24T17:55:00.984Z,11.55
2024-02-24T17:57:30.253Z,11.56
2024-02-24T17:59:58.753Z,11.63
2024-02-24T18:02:27.279Z,11.62
2024-02-24T18:04:55.739Z,11.64
2024-02-24T18:07:24.186Z,11.74
2024-02-24T18:09:54.066Z,11.76
2024-02-24T18:12:23.449Z,11.74
2024-02-24T18:14:53.971Z,11.75
2024-02-24T18:17:22.738Z,11.71
2024-02-24T18:19:51.386Z,11.70
2024-02-24T18:22:19.729Z,11.69
2024-02-24T18:24:48.112Z,11.66
2024-02-24T18:27:17.937Z,11.75
2024-02-24T18:29:46.557Z,11.76
2024-02-24T18:32:15.059Z,11.83
2024-02-24T18:34:43.587Z,11.88
2024-02-24T18:37:12.425Z,11.92
2024-02-24T18:39:43.207Z,11.97
2024-02-24T18:42:11.682Z,11.94
2024-02-24T18:44:41.544Z,11.92
2024-02-24T18:47:10.556Z,11.90
2024-02-24T18:49:39.149Z,11.86
2024-02-24T18:52:11.192Z,11.85
2024-02-24T18:54:39.664Z,11.73
2024-02-24T18:57:08.236Z,11.60
2024-02-24T18:59:36.656Z,11.56
2024-02-24T19:02:08.015Z,11.57
2024-02-24T19:04:36.572Z,11.60
2024-02-24T19:07:05.147Z,11.64
2024-02-24T19:09:33.725Z,11.66
2024-02-24T19:12:02.233Z,11.66
2024-02-24T19:14:30.700Z,11.70
2024-02-24T19:16:59.516Z,11.72
2024-02-24T19:19:29.470Z,11.69
2024-02-24T19:21:57.918Z,11.70
2024-02-24T19:24:26.383Z,11.75
2024-02-24T19:26:54.825Z,11.83
2024-02-24T19:29:23.352Z,11.74
2024-02-24T19:31:51.956Z,11.75
2024-02-24T19:34:20.855Z,11.84
2024-02-24T19:36:50.777Z,11.84
2024-02-24T19:39:19.773Z,11.89
2024-02-24T19:41:48.477Z,11.87
2024-02-24T19:44:16.911Z,11.84
2024-02-24T19:46:45.439Z,11.78
2024-02-24T19:49:14.106Z,11.62
2024-02-24T19:51:42.562Z,11.64
2024-02-24T19:54:12.873Z,11.69
2024-02-24T19:56:41.414Z,11.62
2024-02-24T19:59:10.470Z,11.59
2024-02-24T20:01:41.165Z,11.60
2024-02-24T20:04:09.707Z,11.57
2024-02-24T20:06:38.397Z,11.55
2024-02-24T20:09:06.947Z,11.52
2024-02-24T20:11:36.768Z,11.47
2024-02-24T20:14:05.202Z,11.41
2024-02-24T20:16:33.574Z,11.33
2024-02-24T20:19:02.318Z,11.29
2024-02-24T20:21:30.763Z,11.24
2024-02-24T20:23:59.208Z,11.23
2024-02-24T20:26:27.907Z,11.27
2024-02-24T20:28:57.695Z,11.25
2024-02-24T20:31:26.078Z,11.22
2024-02-24T20:34:00.562Z,11.19
2024-02-24T20:36:35.408Z,11.14
2024-02-24T20:39:03.846Z,11.12
2024-02-24T20:41:32.343Z,11.11
2024-02-24T20:44:02.763Z,11.13
2024-02-24T20:46:31.147Z,11.03
2024-02-24T20:49:00.152Z,11.00
2024-02-24T20:51:28.709Z,10.94
2024-02-24T20:53:57.290Z,10.89
2024-02-24T20:56:25.824Z,10.93
2024-02-24T20:58:54.314Z,10.92
2024-02-24T21:01:25.157Z,10.85
2024-02-24T21:03:53.678Z,10.89
2024-02-24T21:06:22.226Z,10.92
2024-02-24T21:08:50.708Z,10.94
2024-02-24T21:11:19.251Z,11.02
2024-02-24T21:13:47.758Z,11.03
2024-02-24T21:16:17.122Z,11.07
2024-02-24T21:18:48.494Z,11.13
2024-02-24T21:21:17.176Z,11.11
2024-02-24T21:23:47.890Z,11.17
2024-02-24T21:26:16.481Z,11.16
2024-02-24T21:28:44.783Z,11.13
2024-02-24T21:31:13.211Z,11.10
2024-02-24T21:33:41.726Z,11.07
2024-02-24T21:36:12.003Z,11.08
2024-02-24T21:38:40.522Z,11.00
2024-02-24T21:41:10.428Z,10.99
2024-02-24T21:43:39.656Z,10.96
2024-02-24T21:46:08.052Z,10.97
2024-02-24T21:48:36.590Z,10.89
2024-02-24T21:51:05.367Z,10.84
2024-02-24T21:53:35.292Z,10.78
2024-02-24T21:56:03.710Z,10.72
2024-02-24T21:58:32.291Z,10.68
2024-02-24T22:01:00.747Z,10.73
2024-02-24T22:03:29.736Z,10.70
2024-02-24T22:05:58.185Z,10.72
2024-02-24T22:08:26.752Z,10.63
2024-02-24T22:10:56.648Z,10.53
2024-02-24T22:13:25.123Z,10.50
2024-02-24T22:15:53.552Z,10.49
2024-02-24T22:18:22.112Z,10.50
2024-02-24T22:20:51.888Z,10.51
2024-02-24T22:23:20.714Z,10.52
2024-02-24T22:25:49.226Z,10.51
2024-02-24T22:28:18.972Z,10.48
2024-02-24T22:30:47.466Z,10.49
2024-02-24T22:33:16.050Z,10.49
2024-02-24T22:35:44.789Z,10.45
2024-02-24T22:38:13.217Z,10.48
2024-02-24T22:40:41.799Z,10.51
2024-02-24T22:43:10.387Z,10.53
2024-02-24T22:45:40.326Z,10.44
2024-02-24T22:48:09.207Z,10.40
2024-02-24T22:50:37.830Z,10.59
2024-02-24T22:53:06.597Z,10.51
2024-02-24T22:55:37.678Z,10.53
2024-02-24T22:58:06.392Z,10.63
2024-02-24T23:00:34.843Z,10.63
2024-02-24T23:03:06.356Z,10.66
2024-02-24T23:05:34.913Z,10.70
2024-02-24T23:08:03.953Z,10.74
2024-02-24T23:10:32.717Z,10.75
2024-02-24T23:13:01.131Z,10.81
2024-02-24T23:15:29.576Z,10.83
2024-02-24T23:17:58.155Z,10.81
2024-02-24T23:20:28.405Z,10.85
2024-02-24T23:22:56.856Z,10.83
2024-02-24T23:25:25.786Z,10.80
2024-02-24T23:27:54.260Z,10.73
2024-02-24T23:30:22.702Z,10.73
2024-02-24T23:32:51.323Z,10.75
2024-02-24T23:35:20.485Z,10.81
2024-02-24T23:37:50.333Z,10.86
2024-02-24T23:40:18.852Z,10.87
2024-02-24T23:42:48.806Z,10.95
2024-02-24T23:45:17.349Z,10.88
2024-02-24T23:47:46.083Z,10.96
2024-02-24T23:50:14.633Z,11.07
2024-02-24T23:52:43.611Z,11.02
2024-02-24T23:55:14.293Z,10.99
2024-02-24T23:57:42.762Z,11.01
